Time;durP1;ratioP1;P1;durP2;ratioP2;P2;SDS_P1;SDS_P2;PMS_P1;PMS_P2;Temp;Humidity;BMP_temperature;BMP_pressure;BME280_temperature;BME280_humidity;BME280_pressure;Samples;Min_cycle;Max_cycle;Signal;HPM_P1;HPM_P2
2023/03/21 00:00:44;;;;;;;8.77;6.65;;;8.90;99.90;;;;;;5040602;28;20044;-83
2023/03/21 00:03:10;;;;;;;17.42;7.10;;;8.90;99.90;;;;;;5046795;28;20029;-84
2023/03/21 00:05:48;;;;;;;12.07;6.95;;;8.90;99.90;;;;;;5046068;28;20367;-83
2023/03/21 00:08:14;;;;;;;12.18;6.15;;;8.90;99.90;;;;;;5042838;28;20041;-83
2023/03/21 00:10:40;;;;;;;11.48;6.85;;;8.90;99.90;;;;;;5048121;28;20302;-83
2023/03/21 00:13:06;;;;;;;13.75;6.90;;;8.90;99.90;;;;;;5047248;28;20112;-83
2023/03/21 00:15:31;;;;;;;10.75;6.07;;;8.90;99.90;;;;;;5049993;28;20037;-82
2023/03/21 00:18:02;;;;;;;10.57;5.88;;;8.90;99.90;;;;;;5049383;28;20469;-83
2023/03/21 00:20:33;;;;;;;8.00;5.43;;;8.90;99.90;;;;;;5048390;28;20041;-83
2023/03/21 00:23:00;;;;;;;10.60;5.43;;;8.90;99.90;;;;;;5049817;28;20120;-82
2023/03/21 00:25:26;;;;;;;8.85;6.10;;;8.90;99.90;;;;;;5047671;28;20036;-82
2023/03/21 00:27:52;;;;;;;13.43;5.97;;;8.90;99.90;;;;;;5043098;28;20112;-82
2023/03/21 00:30:17;;;;;;;9.90;6.07;;;8.80;99.90;;;;;;5048317;28;20474;-82
2023/03/21 00:32:45;;;;;;;11.60;5.78;;;8.90;99.90;;;;;;5045895;28;20482;-84
2023/03/21 00:35:11;;;;;;;10.15;5.63;;;8.80;99.90;;;;;;5042675;28;20029;-82
2023/03/21 00:37:36;;;;;;;12.15;5.85;;;8.80;99.90;;;;;;5046975;28;20402;-82
2023/03/21 00:40:08;;;;;;;10.68;6.00;;;8.80;99.90;;;;;;5047302;28;20037;-83
2023/03/21 00:42:34;;;;;;;12.27;6.72;;;8.80;99.90;;;;;;5050294;28;20044;-82
2023/03/21 00:45:00;;;;;;;10.77;6.60;;;8.80;99.90;;;;;;5043894;28;20029;-82
2023/03/21 00:47:26;;;;;;;9.75;6.93;;;8.90;99.90;;;;;;5048854;28;20470;-83
2023/03/21 00:49:52;;;;;;;10.07;6.00;;;8.80;99.90;;;;;;5042628;28;20025;-81
2023/03/21 00:52:17;;;;;;;10.25;6.18;;;8.80;99.90;;;;;;5044220;28;20099;-83
2023/03/21 00:54:43;;;;;;;7.30;5.18;;;8.90;99.90;;;;;;5044240;28;20021;-83
2023/03/21 00:57:09;;;;;;;11.80;6.72;;;8.80;99.90;;;;;;5048889;28;20264;-83
2023/03/21 00:59:34;;;;;;;11.23;6.88;;;8.80;99.90;;;;;;5047927;28;20297;-83
2023/03/21 01:02:00;;;;;;;14.50;7.93;;;8.90;99.90;;;;;;5047113;28;20052;-82
2023/03/21 01:04:27;;;;;;;14.27;7.97;;;8.90;99.90;;;;;;5045300;28;20029;-82
2023/03/21 01:06:53;;;;;;;12.68;7.60;;;8.90;99.90;;;;;;5047394;28;20579;-82
2023/03/21 01:09:21;;;;;;;11.70;7.35;;;8.90;99.90;;;;;;5049529;28;20021;-82
2023/03/21 01:11:49;;;;;;;14.45;8.23;;;8.80;99.90;;;;;;5047203;28;20083;-82
2023/03/21 01:14:17;;;;;;;13.05;7.65;;;8.80;99.90;;;;;;5047461;28;20036;-82
2023/03/21 01:16:43;;;;;;;15.60;8.38;;;8.80;99.90;;;;;;5047003;28;20033;-83
2023/03/21 01:19:12;;;;;;;15.68;7.80;;;8.80;99.90;;;;;;5048599;28;20024;-83
2023/03/21 01:21:39;;;;;;;17.92;7.70;;;8.70;99.90;;;;;;5047684;28;20033;-83
2023/03/21 01:24:05;;;;;;;10.95;7.40;;;8.70;99.90;;;;;;5031359;28;20217;-84
2023/03/21 01:26:31;;;;;;;11.88;7.25;;;8.70;99.90;;;;;;5051292;28;20108;-83
2023/03/21 01:28:57;;;;;;;13.43;7.88;;;8.70;99.90;;;;;;5045639;28;20498;-83
2023/03/21 01:31:23;;;;;;;17.38;7.88;;;8.70;99.90;;;;;;5045588;28;20048;-83
2023/03/21 01:33:48;;;;;;;13.52;7.88;;;8.70;99.90;;;;;;5039946;28;20099;-82
2023/03/21 01:36:17;;;;;;;14.90;8.32;;;8.70;99.90;;;;;;5045896;28;20059;-83
2023/03/21 01:38:43;;;;;;;13.20;7.55;;;8.70;99.90;;;;;;5049673;28;20487;-83
2023/03/21 01:41:24;;;;;;;12.93;7.80;;;8.70;99.90;;;;;;5042470;28;20089;-83
2023/03/21 01:43:51;;;;;;;16.02;7.80;;;8.70;99.90;;;;;;5047390;28;20292;-82
2023/03/21 01:46:38;;;;;;;14.57;8.15;;;8.70;99.90;;;;;;5041654;28;20028;-83
2023/03/21 01:49:11;;;;;;;10.23;7.32;;;8.70;99.90;;;;;;5042951;28;20044;-82
2023/03/21 01:51:42;;;;;;;13.88;7.85;;;8.70;99.90;;;;;;5048707;28;20353;-83
2023/03/21 01:54:13;;;;;;;15.73;8.38;;;8.70;99.90;;;;;;5040552;28;20032;-83
2023/03/21 01:56:40;;;;;;;11.85;7.35;;;8.70;99.90;;;;;;5049176;28;20035;-82
2023/03/21 01:59:16;;;;;;;11.93;7.43;;;8.70;99.90;;;;;;5047418;28;20051;-83
2023/03/21 02:01:43;;;;;;;;;;;8.70;99.90;;;;;;5048522;28;20048;-83
2023/03/21 02:04:10;;;;;;;14.13;7.18;;;8.70;99.90;;;;;;5019478;28;20135;-83
2023/03/21 02:07:08;;;;;;;13.50;7.22;;;8.70;99.90;;;;;;5048800;28;20031;-83
2023/03/21 02:09:36;;;;;;;11.82;6.72;;;8.70;99.90;;;;;;5046024;28;20047;-83
2023/03/21 02:12:02;;;;;;;13.15;6.57;;;8.70;99.90;;;;;;5045467;28;20116;-84
2023/03/21 02:14:31;;;;;;;11.27;6.15;;;8.70;99.90;;;;;;5048220;28;20029;-84
2023/03/21 02:17:03;;;;;;;11.50;7.20;;;8.70;99.90;;;;;;5040758;28;20095;-83
2023/03/21 02:19:57;;;;;;;17.10;7.40;;;8.70;99.90;;;;;;5045352;28;20108;-83
2023/03/21 02:22:37;;;;;;;14.48;7.03;;;8.70;99.90;;;;;;5040954;28;20502;-83
2023/03/21 02:25:06;;;;;;;10.93;5.90;;;8.70;99.90;;;;;;5036689;28;20029;-82
2023/03/21 02:27:39;;;;;;;13.18;7.25;;;8.70;99.90;;;;;;5045517;28;20028;-83
2023/03/21 02:30:36;;;;;;;17.90;6.80;;;8.70;99.90;;;;;;5043602;28;20033;-82
2023/03/21 02:33:53;;;;;;;13.00;6.20;;;8.70;99.90;;;;;;5026767;28;20123;-83
2023/03/21 02:36:27;;;;;;;11.88;6.32;;;8.60;99.90;;;;;;5009727;28;20040;-84
2023/03/21 02:39:14;;;;;;;11.38;5.80;;;8.60;99.90;;;;;;5047164;28;20400;-83
2023/03/21 02:41:49;;;;;;;10.07;5.38;;;8.60;99.90;;;;;;5045902;28;20132;-83
2023/03/21 02:44:32;;;;;;;9.32;6.05;;;8.60;99.90;;;;;;5046510;28;20021;-83
2023/03/21 02:47:00;;;;;;;8.50;5.68;;;8.70;99.90;;;;;;5042410;28;20383;-84
2023/03/21 02:49:52;;;;;;;8.13;4.78;;;8.70;99.90;;;;;;5045210;28;20055;-83
2023/03/21 02:52:22;;;;;;;8.38;5.10;;;8.70;99.90;;;;;;5035500;28;20479;-83
2023/03/21 02:54:50;;;;;;;12.32;5.50;;;8.70;99.90;;;;;;5044190;28;20088;-82
2023/03/21 02:57:18;;;;;;;9.82;4.85;;;8.70;99.90;;;;;;5043422;28;20020;-84
2023/03/21 02:59:47;;;;;;;7.65;5.30;;;8.70;99.90;;;;;;5043936;28;20029;-83
2023/03/21 03:02:15;;;;;;;10.20;6.00;;;8.80;99.90;;;;;;5041146;28;20064;-83
2023/03/21 03:04:40;;;;;;;11.20;6.43;;;8.70;99.90;;;;;;5042453;28;20095;-83
2023/03/21 03:07:18;;;;;;;10.07;5.95;;;8.70;99.90;;;;;;5040211;28;20037;-83
2023/03/21 03:10:08;;;;;;;10.98;6.40;;;8.70;99.90;;;;;;5037297;28;20032;-83
2023/03/21 03:13:01;;;;;;;12.13;6.40;;;8.70;99.90;;;;;;5043252;28;20496;-83
2023/03/21 03:15:54;;;;;;;8.77;6.55;;;8.70;99.90;;;;;;5040940;28;20028;-83
2023/03/21 03:18:27;;;;;;;11.40;5.85;;;8.70;99.90;;;;;;5043613;28;20549;-83
2023/03/21 03:21:20;;;;;;;9.95;6.10;;;8.70;99.90;;;;;;5022410;28;20037;-83
2023/03/21 03:23:56;;;;;;;14.45;7.68;;;8.70;99.90;;;;;;5033784;28;20025;-83
2023/03/21 03:26:46;;;;;;;13.45;6.93;;;8.60;99.90;;;;;;5045354;28;20059;-83
2023/03/21 03:29:15;;;;;;;14.40;8.13;;;8.70;99.90;;;;;;5042269;28;20057;-83
2023/03/21 03:31:58;;;;;;;9.85;6.97;;;8.70;99.90;;;;;;5038592;28;20103;-82
2023/03/21 03:34:28;;;;;;;10.90;6.82;;;8.70;99.90;;;;;;5039573;28;20037;-81
2023/03/21 03:36:57;;;;;;;17.10;8.00;;;8.60;99.90;;;;;;5037645;28;20087;-81
2023/03/21 03:39:35;;;;;;;11.88;7.78;;;8.70;99.90;;;;;;5043987;28;20033;-82
2023/03/21 03:42:06;;;;;;;15.48;7.60;;;8.70;99.90;;;;;;5041451;28;20053;-82
2023/03/21 03:44:33;;;;;;;11.75;8.38;;;8.60;99.90;;;;;;5034757;28;20080;-81
2023/03/21 03:47:06;;;;;;;14.77;7.68;;;8.50;99.90;;;;;;5037707;28;20251;-82
2023/03/21 03:49:46;;;;;;;15.75;9.20;;;8.50;99.90;;;;;;5042480;28;20537;-83
2023/03/21 03:52:26;;;;;;;13.35;7.72;;;8.50;99.90;;;;;;5032276;28;20360;-82
2023/03/21 03:54:53;;;;;;;14.18;8.15;;;8.40;99.90;;;;;;5036477;28;20079;-82
2023/03/21 03:57:19;;;;;;;16.25;8.43;;;8.40;99.90;;;;;;5043317;28;20425;-82
2023/03/21 03:59:45;;;;;;;15.35;8.32;;;8.40;99.90;;;;;;5043398;28;20385;-82
2023/03/21 04:02:12;;;;;;;16.35;8.85;;;8.40;99.90;;;;;;5026573;28;20041;-82
2023/03/21 04:04:38;;;;;;;17.23;8.77;;;8.40;99.90;;;;;;5040807;28;20072;-82
2023/03/21 04:07:05;;;;;;;13.75;8.55;;;8.40;99.90;;;;;;5023052;28;20089;-82
2023/03/21 04:09:31;;;;;;;13.13;9.18;;;8.50;99.90;;;;;;5038440;28;20022;-81
2023/03/21 04:11:57;;;;;;;17.38;8.90;;;8.50;99.90;;;;;;5024082;28;20045;-82
2023/03/21 04:14:24;;;;;;;16.35;9.20;;;8.50;99.90;;;;;;5041141;28;20386;-82
2023/03/21 04:16:50;;;;;;;16.88;9.43;;;8.50;99.90;;;;;;5043807;28;20236;-82
2023/03/21 04:19:17;;;;;;;16.73;9.00;;;8.40;99.90;;;;;;5040679;28;20576;-82
2023/03/21 04:21:43;;;;;;;20.63;9.27;;;8.50;99.90;;;;;;5038973;28;20040;-82
2023/03/21 04:24:10;;;;;;;16.80;9.32;;;8.50;99.90;;;;;;5039452;28;20033;-82
2023/03/21 04:26:37;;;;;;;19.15;9.95;;;8.50;99.90;;;;;;5042084;28;20025;-82
2023/03/21 04:29:03;;;;;;;18.00;9.82;;;8.50;99.90;;;;;;5042899;28;20076;-83
2023/03/21 04:31:32;;;;;;;19.20;10.57;;;8.40;99.90;;;;;;5043134;28;20040;-82
2023/03/21 04:34:00;;;;;;;16.83;10.75;;;8.40;99.90;;;;;;5041310;28;20112;-81
2023/03/21 04:36:31;;;;;;;15.40;10.15;;;8.40;99.90;;;;;;5036814;28;20599;-82
2023/03/21 04:39:00;;;;;;;22.20;9.75;;;8.40;99.90;;;;;;5039568;28;20029;-84
2023/03/21 04:41:27;;;;;;;20.38;10.85;;;8.40;99.90;;;;;;5041038;28;20073;-83
2023/03/21 04:43:53;;;;;;;28.90;13.25;;;8.40;99.90;;;;;;5041610;28;20025;-81
2023/03/21 04:46:19;;;;;;;23.55;10.77;;;8.40;99.90;;;;;;5043229;28;20031;-82
2023/03/21 04:48:46;;;;;;;20.10;11.35;;;8.50;99.90;;;;;;5044971;28;20029;-82
2023/03/21 04:51:11;;;;;;;23.45;12.27;;;8.40;99.90;;;;;;5040309;28;20034;-82
2023/03/21 04:53:38;;;;;;;26.27;13.57;;;8.50;99.90;;;;;;5040106;28;20028;-81
2023/03/21 04:56:05;;;;;;;21.80;12.35;;;8.40;99.90;;;;;;5047531;28;20033;-82
2023/03/21 04:58:31;;;;;;;27.42;13.75;;;8.50;99.90;;;;;;5048533;28;20485;-82
2023/03/21 05:00:56;;;;;;;26.55;12.95;;;8.50;99.90;;;;;;5048045;28;20060;-82
2023/03/21 05:03:23;;;;;;;24.20;13.10;;;8.50;99.90;;;;;;5046429;28;20032;-82
2023/03/21 05:05:49;;;;;;;21.10;12.13;;;8.50;99.90;;;;;;5043579;28;20025;-83
2023/03/21 05:08:15;;;;;;;25.50;12.85;;;8.50;99.90;;;;;;5044576;28;20024;-84
2023/03/21 05:10:42;;;;;;;23.55;13.20;;;8.50;99.90;;;;;;5044755;28;20029;-82
2023/03/21 05:13:07;;;;;;;26.10;12.70;;;8.50;99.90;;;;;;5043726;28;20025;-82
2023/03/21 05:15:33;;;;;;;29.45;13.75;;;8.50;99.90;;;;;;5048987;28;20379;-82
2023/03/21 05:18:09;;;;;;;21.05;12.45;;;8.50;99.90;;;;;;5042179;28;20061;-81
2023/03/21 05:20:34;;;;;;;25.48;12.48;;;8.50;99.90;;;;;;5045975;28;20236;-82
2023/03/21 05:23:00;;;;;;;26.60;13.07;;;8.50;99.90;;;;;;5043400;28;20036;-83
2023/03/21 05:25:33;;;;;;;24.13;12.68;;;8.50;99.90;;;;;;5045268;28;20040;-83
2023/03/21 05:28:00;;;;;;;26.55;13.98;;;8.50;99.90;;;;;;5040355;28;20044;-83
2023/03/21 05:30:27;;;;;;;31.90;13.57;;;8.50;99.90;;;;;;5038082;28;20426;-82
2023/03/21 05:32:53;;;;;;;30.48;12.43;;;8.50;99.90;;;;;;5039607;28;20438;-82
2023/03/21 05:35:18;;;;;;;24.17;13.07;;;8.50;99.90;;;;;;5045029;28;20035;-83
2023/03/21 05:37:44;;;;;;;25.83;11.52;;;8.50;99.90;;;;;;5039739;28;20470;-83
2023/03/21 05:40:11;;;;;;;22.65;11.95;;;8.50;99.90;;;;;;5046370;28;20389;-84
2023/03/21 05:42:37;;;;;;;26.02;12.40;;;8.50;99.90;;;;;;5044811;28;20029;-82
2023/03/21 05:45:03;;;;;;;26.35;11.23;;;8.50;99.90;;;;;;5045259;28;20423;-83
2023/03/21 05:47:29;;;;;;;28.70;12.73;;;8.60;99.90;;;;;;5046159;28;20112;-83
2023/03/21 05:49:55;;;;;;;19.88;11.35;;;8.60;99.90;;;;;;5042746;28;22360;-83
2023/03/21 05:52:21;;;;;;;28.38;12.10;;;8.60;99.90;;;;;;5039900;28;20041;-84
2023/03/21 05:54:46;;;;;;;23.92;11.80;;;8.60;99.90;;;;;;5040599;28;20497;-82
2023/03/21 05:57:12;;;;;;;23.20;11.00;;;8.60;99.90;;;;;;5045275;28;20021;-83
2023/03/21 05:59:37;;;;;;;17.00;10.18;;;8.60;99.90;;;;;;5037468;28;20017;-83
2023/03/21 06:02:03;;;;;;;20.15;9.10;;;8.60;99.90;;;;;;5045140;28;20107;-82
2023/03/21 06:04:29;;;;;;;26.63;9.85;;;8.60;99.90;;;;;;5037497;28;20037;-83
2023/03/21 06:06:55;;;;;;;21.08;10.40;;;8.60;99.90;;;;;;5034351;28;20045;-83
2023/03/21 06:09:22;;;;;;;21.38;9.27;;;8.60;99.90;;;;;;5039067;28;20033;-82
2023/03/21 06:11:51;;;;;;;19.00;8.73;;;8.70;99.90;;;;;;5041465;28;20501;-83
2023/03/21 06:14:17;;;;;;;19.38;9.30;;;8.60;99.90;;;;;;5039827;28;20025;-83
2023/03/21 06:16:44;;;;;;;19.23;8.95;;;8.70;99.90;;;;;;5034442;28;20434;-83
2023/03/21 06:19:09;;;;;;;21.67;9.23;;;8.70;99.90;;;;;;5042877;28;20115;-82
2023/03/21 06:21:36;;;;;;;19.23;8.63;;;8.70;99.90;;;;;;5044218;28;20115;-82
2023/03/21 06:24:02;;;;;;;20.88;8.43;;;8.70;99.90;;;;;;5039705;28;20037;-82
2023/03/21 06:26:28;;;;;;;17.83;8.10;;;8.70;99.90;;;;;;5042887;28;20029;-83
2023/03/21 06:28:54;;;;;;;23.08;8.68;;;8.70;99.90;;;;;;5047248;28;20386;-82
2023/03/21 06:31:21;;;;;;;13.80;7.45;;;8.70;99.90;;;;;;5048557;28;20086;-83
2023/03/21 06:33:48;;;;;;;17.70;8.70;;;8.70;99.90;;;;;;5054649;28;20028;-83
2023/03/21 06:36:14;;;;;;;17.17;8.18;;;8.70;99.90;;;;;;5027823;28;20040;-83
2023/03/21 06:38:40;;;;;;;16.98;8.68;;;8.60;99.90;;;;;;5044187;28;20025;-81
2023/03/21 06:41:09;;;;;;;13.98;7.38;;;8.70;99.90;;;;;;5045084;28;20041;-84
2023/03/21 06:43:34;;;;;;;15.75;7.18;;;8.70;99.90;;;;;;5041206;28;20037;-82
2023/03/21 06:46:00;;;;;;;13.30;6.28;;;8.70;99.90;;;;;;5043756;28;20024;-83
2023/03/21 06:48:26;;;;;;;12.23;7.32;;;8.60;99.90;;;;;;5047034;28;20112;-82
2023/03/21 06:50:53;;;;;;;13.68;7.15;;;8.60;99.90;;;;;;5044672;28;20025;-82
2023/03/21 06:53:23;;;;;;;14.05;7.30;;;8.70;99.90;;;;;;5036191;28;20035;-83
2023/03/21 06:55:50;;;;;;;11.27;6.47;;;8.70;99.90;;;;;;5034538;28;20033;-82
2023/03/21 06:58:16;;;;;;;10.57;6.75;;;8.70;99.90;;;;;;5035911;28;20025;-82
2023/03/21 07:00:43;;;;;;;20.52;7.50;;;8.80;99.90;;;;;;5037590;28;20084;-84
2023/03/21 07:03:10;;;;;;;15.15;6.85;;;8.80;99.90;;;;;;5044256;28;20048;-82
2023/03/21 07:05:36;;;;;;;15.18;7.13;;;8.80;99.90;;;;;;5039576;28;20482;-82
2023/03/21 07:08:02;;;;;;;11.93;6.50;;;8.90;99.90;;;;;;5037828;28;20033;-82
2023/03/21 07:10:28;;;;;;;11.18;5.80;;;9.00;99.90;;;;;;5037401;28;20113;-83
2023/03/21 07:12:54;;;;;;;9.93;6.25;;;8.90;99.90;;;;;;5041575;28;20112;-83
2023/03/21 07:15:20;;;;;;;18.83;6.53;;;8.90;99.90;;;;;;5038726;28;20032;-84
2023/03/21 07:17:45;;;;;;;9.50;5.70;;;8.90;99.90;;;;;;5045574;28;20500;-84
2023/03/21 07:20:11;;;;;;;8.93;5.75;;;9.00;99.90;;;;;;5040841;28;20032;-84
2023/03/21 07:22:37;;;;;;;8.63;5.60;;;9.00;99.90;;;;;;5038476;28;20025;-84
2023/03/21 07:25:03;;;;;;;17.08;6.95;;;9.00;99.90;;;;;;5033931;28;20441;-83
2023/03/21 07:27:29;;;;;;;13.52;8.10;;;9.10;99.90;;;;;;5042795;28;20509;-83
2023/03/21 07:29:55;;;;;;;17.90;7.55;;;9.10;99.90;;;;;;5042691;28;20059;-84
2023/03/21 07:32:21;;;;;;;11.48;6.68;;;9.10;99.90;;;;;;5039434;28;20029;-84
2023/03/21 07:34:46;;;;;;;12.10;6.35;;;9.20;99.90;;;;;;5037686;28;20474;-83
2023/03/21 07:37:12;;;;;;;17.10;7.13;;;9.20;99.90;;;;;;5044308;28;20029;-84
2023/03/21 07:39:38;;;;;;;10.07;6.22;;;9.20;99.90;;;;;;5042860;28;20076;-84
2023/03/21 07:42:04;;;;;;;19.92;6.72;;;9.20;99.90;;;;;;5022005;28;20041;-83
2023/03/21 07:44:29;;;;;;;11.82;6.40;;;9.20;99.90;;;;;;5017912;28;20036;-83
2023/03/21 07:46:56;;;;;;;16.42;6.60;;;9.30;99.90;;;;;;5019206;28;20061;-84
2023/03/21 07:49:21;;;;;;;11.20;5.63;;;9.30;99.90;;;;;;5020410;28;20032;-83
2023/03/21 07:51:47;;;;;;;7.63;5.03;;;9.30;99.90;;;;;;5034075;28;20367;-84
2023/03/21 07:54:12;;;;;;;15.02;6.78;;;9.40;99.90;;;;;;5021135;28;20083;-83
2023/03/21 07:56:38;;;;;;;10.07;5.28;;;9.50;99.90;;;;;;5018622;28;20374;-83
2023/03/21 07:59:04;;;;;;;12.15;4.57;;;9.50;99.90;;;;;;5019982;28;20030;-82
2023/03/21 08:01:31;;;;;;;11.20;6.38;;;9.60;99.90;;;;;;5023901;28;20037;-83
2023/03/21 08:03:56;;;;;;;13.27;6.03;;;9.70;99.90;;;;;;5029163;28;20021;-83
2023/03/21 08:06:25;;;;;;;12.10;5.43;;;9.70;99.90;;;;;;5035984;28;20036;-83
2023/03/21 08:08:51;;;;;;;8.10;4.85;;;9.80;99.90;;;;;;5036330;28;20482;-84
2023/03/21 08:11:17;;;;;;;12.65;5.35;;;9.80;99.90;;;;;;5041258;28;20026;-84
2023/03/21 08:13:43;;;;;;;9.02;5.50;;;9.80;99.90;;;;;;5022974;28;20052;-84
2023/03/21 08:16:09;;;;;;;13.07;5.60;;;9.90;99.90;;;;;;5036843;28;20319;-84
2023/03/21 08:18:34;;;;;;;11.10;5.88;;;9.90;99.90;;;;;;5013937;28;20026;-85
2023/03/21 08:21:00;;;;;;;13.10;6.53;;;9.90;99.90;;;;;;5025207;28;20049;-85
2023/03/21 08:23:26;;;;;;;12.13;6.40;;;10.00;99.90;;;;;;5032620;28;20044;-84
2023/03/21 08:25:55;;;;;;;12.60;7.00;;;10.10;99.90;;;;;;5022072;28;20463;-85
2023/03/21 08:28:21;;;;;;;11.85;5.68;;;10.10;99.90;;;;;;5024613;28;20470;-84
2023/03/21 08:30:48;;;;;;;11.05;6.15;;;10.10;99.90;;;;;;5028176;28;20030;-85
2023/03/21 08:33:14;;;;;;;12.90;5.47;;;10.10;99.90;;;;;;5037485;28;20025;-86
2023/03/21 08:35:39;;;;;;;15.52;7.10;;;10.20;99.90;;;;;;5042887;28;20105;-86
2023/03/21 08:38:06;;;;;;;18.67;5.50;;;10.20;99.90;;;;;;5024246;28;20116;-83
2023/03/21 08:40:32;;;;;;;12.32;5.63;;;10.20;99.90;;;;;;5031644;28;20103;-84
2023/03/21 08:42:59;;;;;;;12.07;6.18;;;10.20;99.90;;;;;;5043683;28;20033;-83
2023/03/21 08:45:25;;;;;;;16.92;6.20;;;10.20;99.90;;;;;;5042129;28;20369;-83
2023/03/21 08:47:52;;;;;;;10.63;5.90;;;10.40;99.90;;;;;;5043333;28;20025;-83
2023/03/21 08:50:21;;;;;;;10.63;5.35;;;10.50;99.90;;;;;;5027207;28;20386;-84
2023/03/21 08:52:47;;;;;;;15.82;6.22;;;10.60;99.90;;;;;;5041499;28;20383;-84
2023/03/21 08:55:15;;;;;;;10.63;5.70;;;10.70;99.90;;;;;;5038096;28;20034;-83
2023/03/21 08:57:41;;;;;;;14.43;5.88;;;10.70;99.90;;;;;;5035177;28;20032;-84
2023/03/21 09:00:13;;;;;;;13.95;6.15;;;10.70;99.90;;;;;;5027187;28;20562;-84
2023/03/21 09:02:44;;;;;;;11.93;5.80;;;10.70;99.90;;;;;;5027391;28;20059;-84
2023/03/21 09:05:10;;;;;;;14.88;6.82;;;10.70;99.90;;;;;;5047238;28;20303;-84
2023/03/21 09:07:38;;;;;;;17.17;6.47;;;10.70;99.90;;;;;;5038439;28;20386;-83
2023/03/21 09:10:05;;;;;;;10.68;5.40;;;10.70;99.90;;;;;;5048759;28;20033;-84
2023/03/21 09:12:32;;;;;;;15.32;6.55;;;10.80;99.90;;;;;;5049784;28;20029;-84
2023/03/21 09:14:58;;;;;;;16.50;6.57;;;10.80;99.90;;;;;;5045412;28;20041;-85
2023/03/21 09:17:24;;;;;;;16.02;6.60;;;10.80;99.90;;;;;;5046149;28;20039;-84
2023/03/21 09:19:52;;;;;;;14.10;7.00;;;10.90;99.90;;;;;;5042312;28;20028;-84
2023/03/21 09:22:20;;;;;;;14.80;6.97;;;10.90;99.90;;;;;;5038648;28;20128;-84
2023/03/21 09:24:46;;;;;;;19.00;8.13;;;10.90;99.90;;;;;;5038470;28;20048;-84
2023/03/21 09:27:14;;;;;;;20.95;7.97;;;10.90;99.90;;;;;;5037239;28;20026;-84
2023/03/21 09:29:42;;;;;;;23.23;8.13;;;10.80;99.90;;;;;;5031431;28;20117;-84
2023/03/21 09:32:08;;;;;;;19.30;7.43;;;10.80;99.90;;;;;;5034519;28;20539;-83
2023/03/21 09:34:35;;;;;;;19.40;7.93;;;10.90;99.90;;;;;;5042195;28;20135;-84
2023/03/21 09:37:02;;;;;;;14.05;5.22;;;10.90;99.90;;;;;;5042033;28;20033;-84
2023/03/21 09:39:28;;;;;;;13.80;6.15;;;11.00;99.90;;;;;;5044661;28;20028;-84
2023/03/21 09:41:59;;;;;;;14.70;7.30;;;11.10;99.90;;;;;;5040233;28;20052;-84
2023/03/21 09:44:36;;;;;;;15.63;6.53;;;11.10;99.90;;;;;;5043200;28;20497;-85
2023/03/21 09:47:08;;;;;;;14.40;7.10;;;11.10;99.90;;;;;;5036470;28;20040;-83
2023/03/21 09:49:39;;;;;;;14.70;7.82;;;11.10;99.90;;;;;;5040723;28;20025;-84
2023/03/21 09:52:15;;;;;;;18.10;7.88;;;11.10;99.90;;;;;;5045866;28;20025;-85
2023/03/21 09:54:43;;;;;;;22.60;7.50;;;11.20;99.90;;;;;;5038773;28;20041;-84
2023/03/21 09:57:35;;;;;;;14.48;7.88;;;11.20;99.90;;;;;;5046644;28;20061;-84
2023/03/21 10:00:08;;;;;;;16.25;7.35;;;11.20;99.90;;;;;;5046087;28;20373;-84
2023/03/21 10:02:46;;;;;;;18.60;8.13;;;11.30;99.90;;;;;;5044638;28;20073;-85
2023/03/21 10:05:19;;;;;;;14.40;6.20;;;11.30;99.90;;;;;;5037558;28;20037;-84
2023/03/21 10:07:59;;;;;;;9.82;5.60;;;11.30;99.90;;;;;;5047252;28;20048;-84
2023/03/21 10:10:28;;;;;;;16.27;6.60;;;11.30;99.90;;;;;;5040573;28;20029;-84
2023/03/21 10:12:55;;;;;;;14.23;5.65;;;11.20;99.90;;;;;;5027331;28;20481;-84
2023/03/21 10:15:24;;;;;;;10.80;5.15;;;11.30;99.90;;;;;;5041721;28;20567;-84
2023/03/21 10:17:59;;;;;;;10.88;5.63;;;11.40;99.90;;;;;;5038856;28;20470;-84
2023/03/21 10:20:28;;;;;;;12.38;4.95;;;11.40;99.90;;;;;;5041801;28;20117;-84
2023/03/21 10:22:55;;;;;;;9.20;6.00;;;11.40;99.90;;;;;;5035384;28;20022;-85
2023/03/21 10:25:34;;;;;;;12.55;6.38;;;11.40;99.90;;;;;;5043591;28;20686;-85
2023/03/21 10:28:01;;;;;;;10.80;6.25;;;11.50;99.90;;;;;;5043421;28;20086;-84
2023/03/21 10:30:45;;;;;;;15.93;7.22;;;11.40;99.90;;;;;;5043302;28;20446;-83
2023/03/21 10:33:19;;;;;;;9.63;5.55;;;11.40;99.90;;;;;;5041986;28;20082;-84
2023/03/21 10:35:55;;;;;;;13.75;7.30;;;11.50;99.90;;;;;;5044030;28;20037;-83
2023/03/21 10:38:24;;;;;;;15.02;7.25;;;11.40;99.90;;;;;;5040815;28;20035;-85
2023/03/21 10:40:50;;;;;;;14.00;8.07;;;11.40;99.90;;;;;;5040257;28;20057;-87
2023/03/21 10:43:24;;;;;;;23.25;9.32;;;11.40;99.90;;;;;;5039583;28;20029;-84
2023/03/21 10:45:51;;;;;;;22.25;8.90;;;11.40;99.90;;;;;;5038678;28;20118;-84
2023/03/21 10:48:17;;;;;;;21.08;10.05;;;11.40;99.90;;;;;;5034709;28;20116;-83
2023/03/21 10:50:46;;;;;;;32.35;12.10;;;11.40;99.90;;;;;;5036509;28;20538;-84
2023/03/21 10:53:30;;;;;;;25.85;12.25;;;11.50;99.90;;;;;;5027625;28;20031;-85
2023/03/21 10:55:59;;;;;;;22.63;10.70;;;11.50;99.90;;;;;;5043639;28;20066;-83
2023/03/21 10:58:28;;;;;;;24.58;10.55;;;11.50;99.90;;;;;;5034416;28;20033;-83
2023/03/21 11:01:00;;;;;;;21.35;9.35;;;11.60;99.90;;;;;;5044083;28;20047;-83
2023/03/21 11:03:37;;;;;;;28.85;12.13;;;11.60;99.90;;;;;;5034040;28;20098;-83
2023/03/21 11:06:14;;;;;;;28.92;10.40;;;11.60;99.90;;;;;;5037300;28;20057;-83
2023/03/21 11:08:47;;;;;;;24.15;10.48;;;11.70;99.90;;;;;;5035602;28;20056;-83
2023/03/21 11:11:22;;;;;;;24.20;10.00;;;11.70;99.90;;;;;;5040169;28;20057;-83
2023/03/21 11:13:59;;;;;;;20.65;9.65;;;11.70;99.90;;;;;;5036347;28;20029;-83
2023/03/21 11:16:31;;;;;;;25.70;10.63;;;11.80;99.90;;;;;;5039884;28;20048;-84
2023/03/21 11:19:02;;;;;;;23.10;8.93;;;11.90;99.90;;;;;;5042631;28;20137;-87
2023/03/21 11:21:35;;;;;;;25.45;8.80;;;11.90;99.90;;;;;;5023574;28;20479;-85
2023/03/21 11:24:02;;;;;;;21.33;9.05;;;11.90;99.90;;;;;;5030678;28;20032;-86
2023/03/21 11:26:35;;;;;;;17.75;8.85;;;12.00;99.90;;;;;;5045203;28;20032;-85
2023/03/21 11:29:29;;;;;;;21.10;8.07;;;12.00;99.90;;;;;;5045610;28;20029;-84
2023/03/21 11:32:23;;;;;;;24.67;10.88;;;12.00;99.90;;;;;;5038370;28;20045;-81
2023/03/21 11:34:55;;;;;;;18.95;8.07;;;12.20;99.90;;;;;;5033938;28;20076;-84
2023/03/21 11:37:35;;;;;;;24.17;8.90;;;12.30;99.90;;;;;;5048146;28;20441;-85
2023/03/21 11:40:22;;;;;;;19.63;7.68;;;12.30;99.90;;;;;;5037466;28;20064;-84
2023/03/21 11:42:51;;;;;;;20.17;6.35;;;12.30;99.90;;;;;;5019316;28;20029;-84
2023/03/21 11:45:22;;;;;;;26.70;8.40;;;12.40;99.90;;;;;;5014990;28;20029;-83
2023/03/21 11:47:50;;;;;;;15.18;7.38;;;12.50;99.90;;;;;;5017901;28;20025;-83
2023/03/21 11:50:37;;;;;;;24.27;7.28;;;12.50;99.90;;;;;;5020247;28;20021;-85
2023/03/21 11:53:25;;;;;;;22.27;8.48;;;12.60;99.90;;;;;;5014347;28;20041;-84
2023/03/21 11:56:09;;;;;;;25.35;8.32;;;12.60;99.90;;;;;;5017246;28;20040;-84
2023/03/21 11:59:09;;;;;;;20.10;8.38;;;12.70;99.90;;;;;;5019446;28;20052;-85
2023/03/21 12:01:53;;;;;;;22.25;7.90;;;12.70;99.90;;;;;;5018653;28;20387;-83
2023/03/21 12:04:54;;;;;;;29.38;10.10;;;12.70;99.90;;;;;;5018452;28;20032;-84
2023/03/21 12:07:34;;;;;;;21.52;8.02;;;12.70;99.90;;;;;;5009883;28;20107;-84
2023/03/21 12:10:50;;;;;;;19.95;9.23;;;12.70;99.90;;;;;;5023354;28;20063;-84
2023/03/21 12:13:40;;;;;;;21.13;9.97;;;12.70;99.90;;;;;;4972231;28;20040;-84
2023/03/21 12:16:52;;;;;;;21.95;9.15;;;12.80;99.90;;;;;;5015074;28;20652;-83
2023/03/21 12:19:30;;;;;;;27.45;8.70;;;12.70;99.90;;;;;;4959855;28;20483;-82
2023/03/21 12:22:10;;;;;;;17.40;7.85;;;12.80;99.90;;;;;;4961403;28;20112;-82
2023/03/21 12:24:52;;;;;;;36.42;13.48;;;12.80;99.90;;;;;;4983440;28;20045;-82
2023/03/21 12:27:41;;;;;;;17.38;8.23;;;12.80;99.90;;;;;;5019043;28;20053;-85
2023/03/21 12:30:13;;;;;;;27.65;8.80;;;12.80;99.90;;;;;;5024343;28;20030;-83
2023/03/21 12:32:44;;;;;;;19.38;8.32;;;12.90;99.90;;;;;;5019429;28;20117;-84
2023/03/21 12:35:35;;;;;;;26.00;9.35;;;12.90;99.90;;;;;;5021692;28;20498;-83
2023/03/21 12:38:24;;;;;;;22.00;8.40;;;12.90;99.90;;;;;;4996985;28;20088;-84
2023/03/21 12:40:56;;;;;;;25.88;13.30;;;12.90;99.90;;;;;;5032395;28;20102;-85
2023/03/21 12:43:28;;;;;;;24.88;8.30;;;13.00;99.90;;;;;;5039076;28;20033;-83
2023/03/21 12:46:10;;;;;;;21.17;7.78;;;13.00;99.90;;;;;;5039098;28;20025;-84
2023/03/21 12:48:53;;;;;;;16.00;7.70;;;13.10;99.90;;;;;;5040526;28;20013;-84
2023/03/21 12:51:25;;;;;;;20.23;6.57;;;13.10;99.90;;;;;;5038232;28;20428;-84
2023/03/21 12:54:04;;;;;;;18.35;6.88;;;13.20;99.90;;;;;;5045248;28;20021;-84
2023/03/21 12:56:34;;;;;;;16.40;8.05;;;13.20;99.90;;;;;;5043437;28;20033;-85
2023/03/21 12:59:03;;;;;;;19.27;6.82;;;13.30;99.90;;;;;;5043645;28;20025;-83
2023/03/21 13:01:30;;;;;;;18.70;6.47;;;13.30;99.90;;;;;;5039724;28;20041;-87